createdAt,value
2018-01-25T00:00:18.122Z,88.95
2018-01-25T00:02:45.729Z,89.13
2018-01-25T00:05:13.320Z,89.25
2018-01-25T00:07:40.893Z,89.17
2018-01-25T00:10:08.649Z,89.03
2018-01-25T00:12:36.275Z,89.13
2018-01-25T00:15:03.855Z,89.43
2018-01-25T00:17:31.454Z,89.44
2018-01-25T00:19:59.011Z,89.64
2018-01-25T00:22:26.660Z,89.24
2018-01-25T00:24:54.288Z,88.64
2018-01-25T00:27:21.867Z,87.79
2018-01-25T00:29:49.557Z,87.55
2018-01-25T00:32:17.167Z,87.11
2018-01-25T00:34:44.749Z,87.38
2018-01-25T00:37:12.319Z,87.11
2018-01-25T00:39:40.141Z,87.15
2018-01-25T00:42:07.724Z,87.29
2018-01-25T00:44:35.307Z,87.35
2018-01-25T00:47:02.932Z,87.18
2018-01-25T00:49:30.517Z,87.17
2018-01-25T00:51:58.255Z,87.00
2018-01-25T00:54:25.872Z,86.73
2018-01-25T00:56:53.463Z,87.50
2018-01-25T00:59:21.026Z,88.25
2018-01-25T01:01:48.618Z,88.86
2018-01-25T01:04:16.180Z,89.31
2018-01-25T01:06:43.757Z,89.44
2018-01-25T01:09:11.347Z,89.94
2018-01-25T01:11:38.951Z,89.84
2018-01-25T01:14:06.573Z,89.43
2018-01-25T01:16:34.192Z,89.23
2018-01-25T01:19:01.759Z,89.24
2018-01-25T01:21:29.326Z,89.73
2018-01-25T01:23:56.965Z,89.89
2018-01-25T01:26:24.558Z,89.75
2018-01-25T01:28:52.127Z,89.75
2018-01-25T01:31:19.751Z,89.88
2018-01-25T01:33:47.318Z,90.07
2018-01-25T01:36:14.888Z,90.10
2018-01-25T01:38:42.520Z,90.41
2018-01-25T01:41:10.087Z,90.44
2018-01-25T01:43:37.673Z,90.23
2018-01-25T01:46:05.286Z,89.88
2018-01-25T01:48:32.863Z,89.73
2018-01-25T01:51:00.447Z,90.04
2018-01-25T01:53:28.069Z,89.92
2018-01-25T01:55:55.681Z,89.73
2018-01-25T01:58:23.251Z,89.47
2018-01-25T02:00:50.860Z,88.97
2018-01-25T02:03:18.432Z,88.70
2018-01-25T02:05:46.071Z,88.96
2018-01-25T02:08:13.678Z,89.26
2018-01-25T02:10:41.248Z,89.00
2018-01-25T02:13:08.820Z,88.73
2018-01-25T02:15:36.436Z,89.02
2018-01-25T02:18:04.009Z,89.41
2018-01-25T02:20:31.616Z,89.22
2018-01-25T02:22:59.203Z,89.20
2018-01-25T02:25:26.815Z,88.77
2018-01-25T02:27:54.421Z,88.51
2018-01-25T02:30:22.064Z,88.64
2018-01-25T02:32:49.651Z,88.59
2018-01-25T02:35:17.242Z,88.56
2018-01-25T02:37:44.861Z,88.54
2018-01-25T02:40:12.436Z,88.91
2018-01-25T02:42:40.011Z,89.05
2018-01-25T02:45:07.607Z,88.97
2018-01-25T02:47:35.180Z,88.77
2018-01-25T02:50:02.752Z,88.26
2018-01-25T02:52:30.357Z,87.76
2018-01-25T02:54:57.924Z,87.74
2018-01-25T02:57:25.513Z,87.79
2018-01-25T02:59:53.129Z,88.01
2018-01-25T03:02:20.721Z,87.96
2018-01-25T03:04:48.291Z,87.53
2018-01-25T03:07:15.906Z,87.53
2018-01-25T03:09:43.467Z,87.68
2018-01-25T03:12:11.090Z,87.92
2018-01-25T03:14:38.753Z,87.65
2018-01-25T03:17:06.425Z,87.77
2018-01-25T03:19:34.017Z,88.27
2018-01-25T03:22:01.614Z,88.45
2018-01-25T03:24:29.176Z,88.36
2018-01-25T03:26:56.760Z,88.51
2018-01-25T03:29:24.752Z,88.51
2018-01-25T03:31:52.440Z,88.71
2018-01-25T03:34:20.010Z,89.05
2018-01-25T03:36:47.631Z,88.98
2018-01-25T03:39:15.216Z,89.00
2018-01-25T03:41:42.783Z,89.13
2018-01-25T03:44:10.498Z,89.59
2018-01-25T03:46:38.079Z,89.65
2018-01-25T03:49:05.666Z,89.67
2018-01-25T03:51:33.290Z,89.37
2018-01-25T03:54:00.934Z,89.08
2018-01-25T03:56:28.490Z,88.83
2018-01-25T03:58:56.264Z,89.10
2018-01-25T04:01:23.988Z,89.46
2018-01-25T04:03:51.565Z,89.81
2018-01-25T04:06:19.169Z,88.93
2018-01-25T04:08:46.746Z,88.14
2018-01-25T04:11:14.329Z,88.05
2018-01-25T04:13:41.941Z,88.07
2018-01-25T04:16:09.532Z,87.88
2018-01-25T04:18:37.125Z,87.82
2018-01-25T04:21:04.751Z,88.19
2018-01-25T04:23:32.341Z,88.48
2018-01-25T04:25:59.928Z,88.33
2018-01-25T04:28:27.549Z,88.23
2018-01-25T04:30:55.133Z,88.20
2018-01-25T04:33:22.710Z,88.35
2018-01-25T04:35:50.323Z,88.55
2018-01-25T04:38:18.049Z,88.21
2018-01-25T04:40:45.635Z,88.09
2018-01-25T04:43:13.307Z,88.30
2018-01-25T04:45:40.901Z,88.40
2018-01-25T04:48:08.491Z,88.24
2018-01-25T04:50:36.356Z,88.40
2018-01-25T04:53:04.029Z,88.04
2018-01-25T04:55:31.600Z,87.99
2018-01-25T04:57:59.248Z,87.77
2018-01-25T05:00:26.828Z,87.95
2018-01-25T05:02:54.417Z,88.12
2018-01-25T05:05:22.041Z,88.26
2018-01-25T05:07:49.631Z,88.39
2018-01-25T05:10:17.230Z,88.25
2018-01-25T05:12:44.847Z,88.10
2018-01-25T05:15:12.428Z,88.52
2018-01-25T05:17:41.896Z,88.46
2018-01-25T05:20:09.565Z,88.39
2018-01-25T05:22:37.186Z,88.49
2018-01-25T05:25:04.763Z,88.34
2018-01-25T05:27:32.529Z,88.30
2018-01-25T05:30:00.114Z,88.14
2018-01-25T05:32:27.775Z,87.87
2018-01-25T05:34:55.395Z,87.61
2018-01-25T05:37:22.962Z,87.31
2018-01-25T05:39:50.566Z,87.38
2018-01-25T05:42:18.195Z,87.38
2018-01-25T05:44:45.773Z,87.72
2018-01-25T05:47:13.350Z,87.26
2018-01-25T05:49:41.014Z,86.44
2018-01-25T05:52:08.576Z,86.34
2018-01-25T05:54:36.168Z,86.70
2018-01-25T05:57:03.797Z,86.42
2018-01-25T05:59:31.386Z,86.85
2018-01-25T06:01:58.981Z,86.62
2018-01-25T06:04:26.709Z,85.82
2018-01-25T06:06:54.291Z,85.14
2018-01-25T06:09:21.864Z,84.51
2018-01-25T06:11:49.493Z,84.25
2018-01-25T06:14:17.078Z,84.27
2018-01-25T06:16:44.724Z,83.83
2018-01-25T06:19:12.338Z,83.58
2018-01-25T06:21:39.925Z,82.24
2018-01-25T06:24:07.511Z,82.16
2018-01-25T06:26:35.193Z,82.16
2018-01-25T06:29:02.762Z,81.54
2018-01-25T06:31:30.345Z,77.72
2018-01-25T06:33:57.983Z,72.92
2018-01-25T06:36:25.616Z,73.33
2018-01-25T06:38:53.213Z,72.39
2018-01-25T06:41:20.814Z,68.96
2018-01-25T06:43:48.387Z,64.14
2018-01-25T06:46:16.083Z,60.92
2018-01-25T06:48:43.687Z,58.08
2018-01-25T06:51:11.267Z,55.49
2018-01-25T06:53:38.847Z,54.81
2018-01-25T06:56:06.525Z,50.99
2018-01-25T06:58:34.095Z,48.39
2018-01-25T07:01:01.697Z,49.63
2018-01-25T07:03:29.500Z,46.14
2018-01-25T07:05:57.124Z,45.56
2018-01-25T07:08:24.825Z,44.48
2018-01-25T07:10:52.481Z,43.15
2018-01-25T07:13:20.051Z,42.26
2018-01-25T07:15:47.640Z,44.56
2018-01-25T07:18:15.473Z,47.87
2018-01-25T07:20:43.050Z,51.32
2018-01-25T07:23:10.628Z,58.22
2018-01-25T07:25:38.271Z,58.82
2018-01-25T07:28:05.856Z,61.44
2018-01-25T07:30:33.436Z,62.39
2018-01-25T07:33:01.062Z,63.78
2018-01-25T07:35:28.652Z,66.20
2018-01-25T07:37:56.224Z,67.10
2018-01-25T07:40:23.846Z,67.65
2018-01-25T07:42:51.874Z,67.56
2018-01-25T07:45:19.518Z,66.51
2018-01-25T07:47:47.148Z,63.67
2018-01-25T07:50:14.752Z,61.76
2018-01-25T07:52:42.400Z,55.93
2018-01-25T07:55:10.015Z,52.84
2018-01-25T07:57:43.271Z,49.30
2018-01-25T08:00:10.843Z,48.39
2018-01-25T08:02:38.491Z,46.82
2018-01-25T08:05:06.085Z,45.57
2018-01-25T08:07:33.694Z,44.25
2018-01-25T08:10:01.279Z,44.01
2018-01-25T08:12:28.861Z,43.56
2018-01-25T08:14:56.485Z,43.79
2018-01-25T08:17:24.057Z,42.83
2018-01-25T08:19:51.649Z,42.28
2018-01-25T08:22:19.281Z,41.26
2018-01-25T08:24:46.915Z,38.43
2018-01-25T08:27:14.505Z,36.55
2018-01-25T08:29:42.127Z,38.95
2018-01-25T08:32:09.738Z,38.52
2018-01-25T08:34:37.298Z,37.47
2018-01-25T08:37:04.920Z,37.52
2018-01-25T08:39:32.491Z,38.35
2018-01-25T08:42:00.064Z,36.48
2018-01-25T08:44:27.663Z,37.14
2018-01-25T08:46:55.220Z,36.61
2018-01-25T08:49:22.799Z,39.66
2018-01-25T08:51:50.412Z,39.59
2018-01-25T08:54:18.001Z,39.25
2018-01-25T08:56:45.581Z,39.02
2018-01-25T08:59:13.183Z,41.64
2018-01-25T09:01:40.763Z,39.36
2018-01-25T09:04:08.350Z,38.59
2018-01-25T09:06:35.948Z,37.66
2018-01-25T09:09:03.627Z,37.39
2018-01-25T09:11:31.484Z,37.92
2018-01-25T09:13:59.099Z,37.06
2018-01-25T09:16:26.675Z,36.99
2018-01-25T09:18:54.320Z,34.44
2018-01-25T09:21:21.917Z,35.55
2018-01-25T09:23:49.476Z,35.77
2018-01-25T09:26:17.044Z,35.22
2018-01-25T09:28:44.648Z,35.04
2018-01-25T09:31:12.228Z,36.43
2018-01-25T09:33:39.795Z,33.29
2018-01-25T09:36:07.398Z,33.49
2018-01-25T09:38:34.972Z,32.62
2018-01-25T09:41:02.544Z,32.19
2018-01-25T09:43:30.215Z,29.18
2018-01-25T09:45:57.799Z,28.86
2018-01-25T09:48:25.392Z,30.17
2018-01-25T09:50:53.043Z,31.08
2018-01-25T09:53:20.633Z,30.90
2018-01-25T09:55:48.220Z,30.65
2018-01-25T09:58:15.838Z,30.87
2018-01-25T10:00:43.493Z,32.61
2018-01-25T10:03:11.080Z,32.16
2018-01-25T10:05:38.687Z,31.21
2018-01-25T10:08:06.412Z,29.73
2018-01-25T10:10:33.990Z,31.08
2018-01-25T10:13:01.589Z,27.41
2018-01-25T10:15:29.163Z,27.45
2018-01-25T10:17:56.732Z,29.17
2018-01-25T10:20:24.355Z,29.34
2018-01-25T10:22:51.937Z,27.80
2018-01-25T10:25:19.534Z,25.91
2018-01-25T10:27:47.161Z,23.86
2018-01-25T10:30:14.755Z,25.47
2018-01-25T10:32:42.436Z,24.73
2018-01-25T10:35:10.064Z,25.48
2018-01-25T10:37:37.742Z,25.21
2018-01-25T10:40:05.324Z,24.28
2018-01-25T10:42:33.085Z,23.67
2018-01-25T10:45:00.658Z,22.49
2018-01-25T10:47:28.222Z,23.18
2018-01-25T10:49:55.836Z,21.79
2018-01-25T10:52:23.441Z,21.87
2018-01-25T10:54:50.995Z,22.56
2018-01-25T10:57:18.612Z,22.60
2018-01-25T10:59:46.179Z,22.81
2018-01-25T11:02:13.823Z,22.95
2018-01-25T11:04:41.447Z,22.89
2018-01-25T11:07:09.020Z,22.23
2018-01-25T11:09:36.586Z,22.41
2018-01-25T11:12:04.213Z,21.70
2018-01-25T11:14:31.770Z,22.02
2018-01-25T11:16:59.355Z,23.58
2018-01-25T11:19:26.971Z,22.70
2018-01-25T11:21:54.529Z,24.09
2018-01-25T11:24:22.106Z,24.56
2018-01-25T11:26:49.700Z,27.64
2018-01-25T11:29:17.260Z,26.80
2018-01-25T11:31:44.815Z,24.92
2018-01-25T11:34:12.425Z,25.70
2018-01-25T11:36:39.964Z,26.27
2018-01-25T11:39:07.524Z,26.16
2018-01-25T11:41:35.125Z,26.25
2018-01-25T11:44:02.688Z,33.55
2018-01-25T11:46:30.297Z,31.50
2018-01-25T11:48:57.883Z,27.97
2018-01-25T11:51:25.449Z,26.64
2018-01-25T11:53:53.002Z,28.00
2018-01-25T11:56:20.601Z,28.90
2018-01-25T11:58:48.152Z,28.20
2018-01-25T12:01:15.718Z,27.93
2018-01-25T12:03:43.312Z,28.39
2018-01-25T12:06:10.889Z,27.74
2018-01-25T12:08:38.444Z,27.15
2018-01-25T12:11:06.034Z,28.74
2018-01-25T12:13:33.648Z,29.75
2018-01-25T12:16:01.225Z,29.77
2018-01-25T12:18:28.852Z,30.64
2018-01-25T12:20:56.499Z,29.94
2018-01-25T12:23:24.061Z,29.91
2018-01-25T12:25:51.655Z,30.93
2018-01-25T12:28:19.235Z,30.45
2018-01-25T12:30:46.802Z,31.57
2018-01-25T12:33:14.421Z,30.48
2018-01-25T12:35:41.974Z,31.67
2018-01-25T12:38:09.539Z,31.96
2018-01-25T12:40:37.171Z,29.34
2018-01-25T12:43:04.776Z,27.29
2018-01-25T12:45:32.508Z,25.47
2018-01-25T12:48:00.095Z,24.50
2018-01-25T12:50:27.657Z,26.11
2018-01-25T12:52:55.243Z,26.39
2018-01-25T12:55:22.833Z,27.16
2018-01-25T12:57:50.388Z,28.70
2018-01-25T13:00:17.955Z,30.62
2018-01-25T13:02:45.790Z,29.14
2018-01-25T13:05:13.376Z,28.65
2018-01-25T13:07:40.947Z,29.24
2018-01-25T13:10:08.528Z,30.56
2018-01-25T13:12:36.124Z,31.18
2018-01-25T13:15:03.675Z,31.29
2018-01-25T13:17:31.498Z,29.82
2018-01-25T13:19:59.075Z,29.31
2018-01-25T13:22:26.625Z,28.63
2018-01-25T13:24:54.253Z,27.67
2018-01-25T13:27:21.814Z,28.72
2018-01-25T13:29:49.413Z,27.14
2018-01-25T13:32:19.689Z,28.86
2018-01-25T13:34:47.278Z,31.64
2018-01-25T13:37:15.205Z,31.47
2018-01-25T13:39:42.867Z,30.39
2018-01-25T13:42:10.481Z,30.74
2018-01-25T13:44:38.051Z,32.81
2018-01-25T13:47:05.707Z,33.24
2018-01-25T13:49:33.304Z,31.77
2018-01-25T13:52:00.960Z,32.32
2018-01-25T13:54:28.643Z,30.40
2018-01-25T13:56:56.244Z,30.77
2018-01-25T13:59:23.804Z,30.71
2018-01-25T14:01:51.422Z,30.84
2018-01-25T14:04:19.014Z,32.63
2018-01-25T14:06:46.584Z,32.56
2018-01-25T14:09:15.267Z,33.22
2018-01-25T14:11:42.867Z,33.87
2018-01-25T14:14:10.461Z,34.95
2018-01-25T14:16:38.080Z,37.75
2018-01-25T14:19:05.640Z,39.60
2018-01-25T14:21:33.212Z,41.71
2018-01-25T14:24:00.795Z,43.98
2018-01-25T14:26:28.361Z,45.80
2018-01-25T14:28:55.928Z,48.03
2018-01-25T14:31:23.578Z,51.14
2018-01-25T14:33:51.191Z,51.86
2018-01-25T14:36:18.734Z,51.29
2018-01-25T14:38:46.367Z,54.05
2018-01-25T14:41:13.980Z,55.19
2018-01-25T14:43:41.560Z,55.46
2018-01-25T14:46:09.187Z,56.21
2018-01-25T14:48:36.844Z,56.42
2018-01-25T14:51:04.406Z,56.74
2018-01-25T14:53:32.176Z,57.96
2018-01-25T14:55:59.745Z,57.87
2018-01-25T14:58:27.294Z,58.20
2018-01-25T15:00:54.877Z,59.14
2018-01-25T15:03:22.432Z,59.03
2018-01-25T15:05:49.980Z,58.44
2018-01-25T15:08:17.577Z,58.17
2018-01-25T15:10:45.141Z,58.93
2018-01-25T15:13:12.714Z,59.29
2018-01-25T15:15:40.318Z,59.15
2018-01-25T15:18:07.892Z,59.26
2018-01-25T15:20:35.462Z,60.16
2018-01-25T15:23:03.119Z,61.22
2018-01-25T15:25:36.340Z,62.08
2018-01-25T15:28:03.913Z,63.03
2018-01-25T15:30:31.482Z,64.05
2018-01-25T15:32:59.064Z,65.28
2018-01-25T15:35:26.745Z,66.70
2018-01-25T15:37:54.573Z,66.89
2018-01-25T15:40:22.135Z,66.79
2018-01-25T15:42:49.737Z,67.24
2018-01-25T15:45:17.297Z,67.47
2018-01-25T15:47:44.869Z,68.00
2018-01-25T15:50:12.486Z,68.74
2018-01-25T15:52:40.120Z,69.99
2018-01-25T15:55:07.679Z,71.36
2018-01-25T15:57:35.254Z,70.94
2018-01-25T16:00:02.842Z,71.43
2018-01-25T16:02:30.391Z,71.10
2018-01-25T16:04:58.000Z,71.65
2018-01-25T16:07:25.890Z,72.32
2018-01-25T16:09:53.552Z,72.64
2018-01-25T16:12:21.186Z,71.87
2018-01-25T16:14:48.866Z,70.87
2018-01-25T16:17:16.471Z,71.51
2018-01-25T16:19:44.138Z,72.55
2018-01-25T16:22:11.744Z,73.54
2018-01-25T16:24:39.507Z,74.07
2018-01-25T16:27:07.014Z,74.44
2018-01-25T16:29:34.654Z,74.79
2018-01-25T16:32:02.217Z,75.16
2018-01-25T16:34:29.799Z,75.16
2018-01-25T16:36:57.363Z,76.23
2018-01-25T16:39:24.963Z,76.63
2018-01-25T16:41:52.581Z,76.38
2018-01-25T16:44:20.162Z,76.44
2018-01-25T16:46:47.734Z,77.05
2018-01-25T16:49:15.373Z,77.72
2018-01-25T16:51:42.940Z,77.59
2018-01-25T16:54:10.542Z,77.50
2018-01-25T16:56:38.151Z,76.86
2018-01-25T16:59:05.735Z,76.62
2018-01-25T17:01:33.291Z,77.21
2018-01-25T17:04:00.903Z,77.66
2018-01-25T17:06:28.485Z,77.98
2018-01-25T17:08:56.112Z,78.07
2018-01-25T17:11:23.721Z,77.27
2018-01-25T17:13:51.305Z,77.00
2018-01-25T17:16:18.880Z,77.34
2018-01-25T17:18:46.497Z,77.52
2018-01-25T17:21:14.057Z,81.21
2018-01-25T17:23:41.619Z,80.08
2018-01-25T17:26:09.250Z,78.95
2018-01-25T17:28:36.840Z,80.23
2018-01-25T17:31:04.437Z,79.48
2018-01-25T17:33:32.038Z,80.01
2018-01-25T17:35:59.616Z,80.80
2018-01-25T17:38:27.162Z,80.12
2018-01-25T17:40:54.755Z,80.01
2018-01-25T17:43:22.701Z,79.77
2018-01-25T17:45:50.286Z,80.13
2018-01-25T17:48:17.888Z,79.49
2018-01-25T17:50:45.465Z,79.40
2018-01-25T17:53:13.027Z,79.75
2018-01-25T17:55:41.196Z,79.50
2018-01-25T17:58:08.831Z,80.20
2018-01-25T18:00:36.420Z,80.96
2018-01-25T18:03:05.476Z,81.34
2018-01-25T18:05:33.141Z,81.78
2018-01-25T18:08:00.696Z,82.20
2018-01-25T18:10:28.403Z,82.11
2018-01-25T18:12:55.960Z,82.17
2018-01-25T18:15:23.522Z,82.16
2018-01-25T18:17:51.123Z,82.56
2018-01-25T18:20:19.108Z,82.49
2018-01-25T18:22:46.682Z,82.99
2018-01-25T18:25:14.297Z,83.68
2018-01-25T18:27:41.899Z,83.84
2018-01-25T18:30:09.642Z,84.05
2018-01-25T18:32:37.263Z,83.60
2018-01-25T18:35:04.819Z,83.80
2018-01-25T18:37:32.381Z,84.36
2018-01-25T18:40:00.051Z,84.65
2018-01-25T18:42:27.634Z,84.83
2018-01-25T18:44:55.385Z,84.43
2018-01-25T18:47:23.044Z,84.90
2018-01-25T18:49:50.593Z,84.96
2018-01-25T18:52:18.168Z,84.72
2018-01-25T18:54:45.765Z,85.10
2018-01-25T18:57:13.340Z,85.41
2018-01-25T18:59:40.914Z,85.76
2018-01-25T19:02:08.521Z,86.34
2018-01-25T19:04:36.080Z,87.01
2018-01-25T19:07:03.734Z,87.26
2018-01-25T19:09:31.339Z,87.16
2018-01-25T19:11:59.038Z,87.72
2018-01-25T19:14:26.974Z,87.98
2018-01-25T19:16:54.573Z,88.00
2018-01-25T19:19:22.150Z,88.24
2018-01-25T19:21:49.713Z,88.47
2018-01-25T19:24:17.305Z,88.39
2018-01-25T19:26:44.905Z,88.47
2018-01-25T19:29:12.479Z,88.69
2018-01-25T19:31:40.146Z,88.79
2018-01-25T19:34:07.797Z,88.87
2018-01-25T19:36:35.473Z,89.02
2018-01-25T19:39:03.167Z,88.91
2018-01-25T19:41:30.737Z,89.12
2018-01-25T19:43:58.304Z,89.21
2018-01-25T19:46:25.891Z,89.07
2018-01-25T19:48:53.470Z,89.89
2018-01-25T19:51:21.034Z,89.47
2018-01-25T19:53:48.694Z,89.39
2018-01-25T19:56:16.256Z,89.32
2018-01-25T19:58:43.824Z,89.31
2018-01-25T20:01:11.423Z,89.33
2018-01-25T20:03:38.973Z,89.45
2018-01-25T20:06:06.555Z,89.47
2018-01-25T20:08:34.154Z,90.13
2018-01-25T20:11:01.711Z,91.04
2018-01-25T20:13:29.281Z,91.37
2018-01-25T20:15:56.881Z,91.61
2018-01-25T20:18:24.435Z,91.75
2018-01-25T20:20:52.002Z,91.02
2018-01-25T20:23:19.627Z,90.28
2018-01-25T20:25:47.191Z,90.30
2018-01-25T20:28:14.761Z,90.29
2018-01-25T20:30:42.363Z,90.28
2018-01-25T20:33:09.950Z,90.38
2018-01-25T20:35:38.105Z,90.38
2018-01-25T20:38:07.750Z,90.32
2018-01-25T20:40:37.111Z,90.52
2018-01-25T20:43:05.214Z,90.55
2018-01-25T20:45:34.872Z,90.34
2018-01-25T20:48:04.033Z,90.24
2018-01-25T20:50:31.803Z,90.39
2018-01-25T20:52:59.959Z,90.57
2018-01-25T20:55:27.932Z,90.61
2018-01-25T20:57:55.497Z,90.29
2018-01-25T21:00:23.144Z,90.09
2018-01-25T21:02:50.704Z,90.27
2018-01-25T21:05:18.524Z,91.34
2018-01-25T21:07:46.138Z,91.95
2018-01-25T21:10:13.782Z,92.13
2018-01-25T21:12:41.466Z,92.18
2018-01-25T21:15:09.076Z,92.21
2018-01-25T21:17:36.655Z,91.98
2018-01-25T21:20:04.291Z,92.16
2018-01-25T21:22:31.901Z,92.22
2018-01-25T21:24:59.540Z,92.19
2018-01-25T21:27:27.105Z,92.18
2018-01-25T21:29:54.694Z,92.04
2018-01-25T21:32:22.256Z,91.80
2018-01-25T21:34:50.007Z,91.98
2018-01-25T21:37:18.544Z,92.29
2018-01-25T21:39:46.123Z,92.41
2018-01-25T21:42:13.730Z,92.34
2018-01-25T21:44:41.417Z,92.48
2018-01-25T21:47:08.974Z,96.92
2018-01-25T21:49:36.544Z,94.08
2018-01-25T21:52:04.262Z,92.46
2018-01-25T21:54:31.832Z,91.80
2018-01-25T21:56:59.656Z,91.54
2018-01-25T21:59:27.246Z,91.38
2018-01-25T22:01:54.806Z,90.97
2018-01-25T22:04:22.755Z,90.86
2018-01-25T22:06:50.375Z,90.85
2018-01-25T22:09:17.971Z,91.89
2018-01-25T22:11:45.579Z,92.42
2018-01-25T22:14:13.636Z,92.38
2018-01-25T22:16:41.199Z,92.37
2018-01-25T22:19:08.781Z,92.57
2018-01-25T22:21:36.614Z,92.49
2018-01-25T22:24:04.463Z,91.87
2018-01-25T22:26:32.053Z,92.02
2018-01-25T22:28:59.678Z,92.02
2018-01-25T22:31:27.236Z,92.08
2018-01-25T22:33:54.802Z,92.18
2018-01-25T22:36:22.430Z,92.41
2018-01-25T22:38:49.995Z,92.26
2018-01-25T22:41:17.721Z,92.25
2018-01-25T22:43:45.365Z,92.01
2018-01-25T22:46:13.017Z,91.99
2018-01-25T22:48:40.626Z,91.89
2018-01-25T22:51:08.237Z,92.05
2018-01-25T22:53:35.844Z,92.03
2018-01-25T22:56:03.409Z,91.99
2018-01-25T22:58:31.071Z,92.07
2018-01-25T23:00:58.700Z,92.46
2018-01-25T23:03:26.309Z,92.69
2018-01-25T23:05:53.874Z,92.64
2018-01-25T23:08:21.427Z,92.49
2018-01-25T23:10:49.023Z,92.31
2018-01-25T23:13:16.602Z,92.02
2018-01-25T23:15:44.177Z,91.82
2018-01-25T23:18:12.020Z,91.83
2018-01-25T23:20:39.586Z,91.65
2018-01-25T23:23:07.167Z,91.79
2018-01-25T23:25:34.754Z,91.78
2018-01-25T23:28:02.326Z,91.77
2018-01-25T23:30:29.940Z,91.68
2018-01-25T23:32:57.559Z,91.48
2018-01-25T23:35:25.246Z,91.44
2018-01-25T23:37:52.803Z,91.49
2018-01-25T23:40:20.402Z,91.84
2018-01-25T23:42:47.969Z,91.68
2018-01-25T23:45:15.561Z,91.63
2018-01-25T23:47:43.354Z,91.47
2018-01-25T23:50:11.028Z,91.41
2018-01-25T23:52:38.588Z,91.66
2018-01-25T23:55:07.491Z,91.37
2018-01-25T23:57:35.242Z,91.23
